createdAt,value
2019-04-30T00:02:15.941Z,5.12
2019-04-30T00:04:48.317Z,4.70
2019-04-30T00:07:19.185Z,4.53
2019-04-30T00:09:54.004Z,4.50
2019-04-30T00:12:25.640Z,4.70
2019-04-30T00:14:55.766Z,5.15
2019-04-30T00:17:26.296Z,4.90
2019-04-30T00:19:59.720Z,4.70
2019-04-30T00:22:33.971Z,4.62
2019-04-30T00:25:02.481Z,4.53
2019-04-30T00:27:35.623Z,4.60
2019-04-30T00:30:09.275Z,4.20
2019-04-30T00:32:43.819Z,4.28
2019-04-30T00:35:15.585Z,4.62
2019-04-30T00:37:44.983Z,4.70
2019-04-30T00:40:16.415Z,4.22
2019-04-30T00:42:46.994Z,4.58
2019-04-30T00:45:18.199Z,4.58
2019-04-30T00:47:48.615Z,4.17
2019-04-30T00:50:19.214Z,4.58
2019-04-30T00:52:49.695Z,4.83
2019-04-30T00:55:20.193Z,4.72
2019-04-30T00:57:50.717Z,5.33
2019-04-30T01:00:28.112Z,5.28
2019-04-30T01:03:05.878Z,5.25
2019-04-30T01:05:39.684Z,5.60
2019-04-30T01:08:08.308Z,5.17
2019-04-30T01:10:38.665Z,5.78
2019-04-30T01:13:11.948Z,5.95
2019-04-30T01:15:43.906Z,5.60
2019-04-30T01:18:13.228Z,6.70
2019-04-30T01:20:43.760Z,7.75
2019-04-30T01:23:16.070Z,6.80
2019-04-30T01:25:49.914Z,6.75
2019-04-30T01:28:23.107Z,7.08
2019-04-30T01:30:53.851Z,7.97
2019-04-30T01:33:28.401Z,7.72
2019-04-30T01:35:59.535Z,7.12
2019-04-30T01:38:29.687Z,7.70
2019-04-30T01:41:00.201Z,8.33
2019-04-30T01:43:34.511Z,7.10
2019-04-30T01:46:12.222Z,7.95
2019-04-30T01:48:34.821Z,7.60
2019-04-30T01:51:05.239Z,8.53
2019-04-30T01:53:35.617Z,9.10
2019-04-30T01:56:22.607Z,8.40
2019-04-30T01:59:01.586Z,8.60
2019-04-30T02:01:33.592Z,8.48
2019-04-30T02:04:03.990Z,8.88
2019-04-30T02:06:34.543Z,8.80
2019-04-30T02:09:06.439Z,8.73
2019-04-30T02:11:38.867Z,8.45
2019-04-30T02:14:09.343Z,8.30
2019-04-30T02:16:39.764Z,8.20
2019-04-30T02:19:10.187Z,8.75
2019-04-30T02:21:42.161Z,7.20
2019-04-30T02:24:12.557Z,7.53
2019-04-30T02:26:43.033Z,8.80
2019-04-30T02:29:13.437Z,8.28
2019-04-30T02:31:46.268Z,8.30
2019-04-30T02:34:22.224Z,7.83
2019-04-30T02:36:54.448Z,8.33
2019-04-30T02:39:24.836Z,7.70
2019-04-30T02:41:55.648Z,7.62
2019-04-30T02:44:29.171Z,7.40
2019-04-30T02:47:00.934Z,7.92
2019-04-30T02:49:33.346Z,7.42
2019-04-30T02:52:05.139Z,8.18
2019-04-30T02:54:39.578Z,8.45
2019-04-30T02:57:12.216Z,8.40
2019-04-30T03:00:01.339Z,8.90
2019-04-30T03:02:32.295Z,8.88
2019-04-30T03:05:02.677Z,9.60
2019-04-30T03:07:33.087Z,10.43
2019-04-30T03:10:04.238Z,9.40
2019-04-30T03:12:34.937Z,9.08
2019-04-30T03:15:09.706Z,9.30
2019-04-30T03:17:40.748Z,9.90
2019-04-30T03:20:27.744Z,9.50
2019-04-30T03:22:44.872Z,9.70
2019-04-30T03:25:15.243Z,9.38
2019-04-30T03:27:45.845Z,9.15
2019-04-30T03:30:16.219Z,9.58
2019-04-30T03:32:52.327Z,10.13
2019-04-30T03:35:22.796Z,9.23
2019-04-30T03:37:50.940Z,8.33
2019-04-30T03:40:21.325Z,9.28
2019-04-30T03:42:51.735Z,10.20
2019-04-30T03:45:22.381Z,9.60
2019-04-30T03:47:52.773Z,9.60
2019-04-30T03:50:23.271Z,9.80
2019-04-30T03:52:53.641Z,9.65
2019-04-30T03:55:24.935Z,9.28
2019-04-30T03:57:55.608Z,9.30
2019-04-30T04:00:33.555Z,8.95
2019-04-30T04:03:04.011Z,9.10
2019-04-30T04:05:42.036Z,8.05
2019-04-30T04:08:20.325Z,8.70
2019-04-30T04:10:52.925Z,8.55
2019-04-30T04:13:23.757Z,8.63
2019-04-30T04:15:54.169Z,8.33
2019-04-30T04:18:24.539Z,8.15
2019-04-30T04:21:07.391Z,8.33
2019-04-30T04:23:29.622Z,7.80
2019-04-30T04:25:59.645Z,7.87
2019-04-30T04:28:30.201Z,7.60
2019-04-30T04:31:00.743Z,7.70
2019-04-30T04:33:32.796Z,8.18
2019-04-30T04:36:04.968Z,7.40
2019-04-30T04:38:35.364Z,7.58
2019-04-30T04:41:05.839Z,6.92
2019-04-30T04:43:36.207Z,6.15
2019-04-30T04:46:09.126Z,6.47
2019-04-30T04:48:39.450Z,6.55
2019-04-30T04:51:27.242Z,5.92
2019-04-30T04:53:42.215Z,6.00
2019-04-30T04:56:12.782Z,5.75
2019-04-30T04:58:43.295Z,5.00
2019-04-30T05:01:13.903Z,4.83
2019-04-30T05:03:45.771Z,4.85
2019-04-30T05:06:16.145Z,4.85
2019-04-30T05:08:49.311Z,4.62
2019-04-30T05:11:19.905Z,4.92
2019-04-30T05:13:50.561Z,4.20
2019-04-30T05:16:22.395Z,4.80
2019-04-30T05:18:52.931Z,4.53
2019-04-30T05:21:23.328Z,5.53
2019-04-30T05:23:53.743Z,4.53
2019-04-30T05:26:24.229Z,4.12
2019-04-30T05:28:54.780Z,3.70
2019-04-30T05:31:28.606Z,3.87
2019-04-30T05:33:58.965Z,3.37
2019-04-30T05:36:29.388Z,3.80
2019-04-30T05:38:59.831Z,3.20
2019-04-30T05:41:30.761Z,3.58
2019-04-30T05:44:01.141Z,3.05
2019-04-30T05:46:31.608Z,2.92
2019-04-30T05:49:02.021Z,2.87
2019-04-30T05:51:32.501Z,3.37
2019-04-30T05:54:02.908Z,3.22
2019-04-30T05:56:33.323Z,3.00
2019-04-30T05:59:03.849Z,2.77
2019-04-30T06:01:34.268Z,3.02
2019-04-30T06:04:04.700Z,2.45
2019-04-30T06:06:35.442Z,3.08
2019-04-30T06:09:14.844Z,2.70
2019-04-30T06:11:51.768Z,2.65
2019-04-30T06:14:29.874Z,2.37
2019-04-30T06:17:10.675Z,2.60
2019-04-30T06:19:41.157Z,2.72
2019-04-30T06:22:11.518Z,2.42
2019-04-30T06:24:42.004Z,2.35
2019-04-30T06:27:13.834Z,2.00
2019-04-30T06:29:45.742Z,1.92
2019-04-30T06:32:16.235Z,2.22
2019-04-30T06:34:49.824Z,1.72
2019-04-30T06:37:20.677Z,2.12
2019-04-30T06:39:51.360Z,1.70
2019-04-30T06:42:21.736Z,1.87
2019-04-30T06:44:52.330Z,2.05
2019-04-30T06:47:32.695Z,1.80
2019-04-30T06:49:55.615Z,1.70
2019-04-30T06:52:26.090Z,1.60
2019-04-30T06:54:56.479Z,1.42
2019-04-30T06:57:29.412Z,1.47
2019-04-30T07:00:00.098Z,1.50
2019-04-30T07:02:30.889Z,1.47
2019-04-30T07:05:01.606Z,1.57
2019-04-30T07:07:38.710Z,1.35
2019-04-30T07:10:10.189Z,1.55
2019-04-30T07:12:45.174Z,1.50
2019-04-30T07:15:16.522Z,1.60
2019-04-30T07:17:49.002Z,1.62
2019-04-30T07:20:19.248Z,1.40
2019-04-30T07:22:59.094Z,1.30
2019-04-30T07:25:23.617Z,1.42
2019-04-30T07:27:54.001Z,1.40
2019-04-30T07:30:25.860Z,1.37
2019-04-30T07:32:56.240Z,1.30
2019-04-30T07:35:26.625Z,1.35
2019-04-30T07:38:00.581Z,1.20
2019-04-30T07:40:29.354Z,1.32
2019-04-30T07:43:00.036Z,1.50
2019-04-30T07:45:32.326Z,1.20
2019-04-30T07:48:03.161Z,1.57
2019-04-30T07:50:35.752Z,1.32
2019-04-30T07:53:08.067Z,1.87
2019-04-30T07:55:39.407Z,1.20
2019-04-30T07:58:10.038Z,1.50
2019-04-30T08:00:40.544Z,1.30
2019-04-30T08:03:15.875Z,1.30
2019-04-30T08:05:50.044Z,1.30
2019-04-30T08:08:25.031Z,1.35
2019-04-30T08:10:54.112Z,1.20
2019-04-30T08:13:24.987Z,1.10
2019-04-30T08:15:55.702Z,1.12
2019-04-30T08:18:26.148Z,1.40
2019-04-30T08:20:58.718Z,1.40
2019-04-30T08:23:34.741Z,1.65
2019-04-30T08:26:02.289Z,1.45
2019-04-30T08:28:32.675Z,1.40
2019-04-30T08:31:04.752Z,1.42
2019-04-30T08:33:35.135Z,1.27
2019-04-30T08:36:05.563Z,1.47
2019-04-30T08:38:36.776Z,1.10
2019-04-30T08:41:08.861Z,1.30
2019-04-30T08:43:39.504Z,1.22
2019-04-30T08:46:10.079Z,1.17
2019-04-30T08:48:50.267Z,1.00
2019-04-30T08:51:13.933Z,1.22
2019-04-30T08:53:44.696Z,1.10
2019-04-30T08:56:15.180Z,1.30
2019-04-30T08:58:45.591Z,1.20
2019-04-30T09:01:16.644Z,1.10
2019-04-30T09:03:50.946Z,1.20
2019-04-30T09:06:21.488Z,1.00
2019-04-30T09:08:52.379Z,1.35
2019-04-30T09:11:29.492Z,1.30
2019-04-30T09:13:58.509Z,1.07
2019-04-30T09:16:29.704Z,1.10
2019-04-30T09:19:01.570Z,0.90
2019-04-30T09:21:32.038Z,1.00
2019-04-30T09:24:04.139Z,1.22
2019-04-30T09:26:36.026Z,1.07
2019-04-30T09:29:06.506Z,1.00
2019-04-30T09:31:40.744Z,1.20
2019-04-30T09:34:17.496Z,1.20
2019-04-30T09:36:42.657Z,1.27
2019-04-30T09:39:13.177Z,1.10
2019-04-30T09:41:43.561Z,1.30
2019-04-30T09:44:15.445Z,0.85
2019-04-30T09:46:48.891Z,1.20
2019-04-30T09:49:20.467Z,1.00
2019-04-30T09:51:51.161Z,1.12
2019-04-30T09:54:22.967Z,1.10
2019-04-30T09:56:53.521Z,1.27
2019-04-30T09:59:25.395Z,1.40
2019-04-30T10:01:55.778Z,1.20
2019-04-30T10:04:26.696Z,1.55
2019-04-30T10:06:59.416Z,1.80
2019-04-30T10:09:29.933Z,1.62
2019-04-30T10:12:01.881Z,1.47
2019-04-30T10:14:32.446Z,1.70
2019-04-30T10:17:04.894Z,1.30
2019-04-30T10:19:35.269Z,1.42
2019-04-30T10:22:08.965Z,1.35
2019-04-30T10:24:39.522Z,1.35
2019-04-30T10:27:12.942Z,1.62
2019-04-30T10:29:42.413Z,1.30
2019-04-30T10:32:12.918Z,1.42
2019-04-30T10:34:44.205Z,1.20
2019-04-30T10:37:14.750Z,1.07
2019-04-30T10:39:45.138Z,1.30
2019-04-30T10:42:17.039Z,1.20
2019-04-30T10:44:47.664Z,1.40
2019-04-30T10:47:19.690Z,1.57
2019-04-30T10:49:50.091Z,1.20
2019-04-30T10:52:20.512Z,1.60
2019-04-30T10:54:50.896Z,1.20
2019-04-30T10:57:21.344Z,1.10
2019-04-30T10:59:51.726Z,1.30
2019-04-30T11:02:22.125Z,1.10
2019-04-30T11:04:52.615Z,1.17
2019-04-30T11:07:23.110Z,1.12
2019-04-30T11:09:55.003Z,1.57
2019-04-30T11:12:25.373Z,1.20
2019-04-30T11:14:55.800Z,1.20
2019-04-30T11:17:26.662Z,1.55
2019-04-30T11:19:59.246Z,1.40
2019-04-30T11:22:29.994Z,1.15
2019-04-30T11:25:02.791Z,1.42
2019-04-30T11:27:33.437Z,2.00
2019-04-30T11:30:20.340Z,1.50
2019-04-30T11:32:41.533Z,1.25
2019-04-30T11:35:13.775Z,1.90
2019-04-30T11:37:44.241Z,1.60
2019-04-30T11:40:15.435Z,1.70
2019-04-30T11:42:45.843Z,1.50
2019-04-30T11:45:19.503Z,1.90
2019-04-30T11:47:53.544Z,2.10
2019-04-30T11:50:24.796Z,2.77
2019-04-30T11:53:09.639Z,2.10
2019-04-30T11:55:29.159Z,2.37
2019-04-30T11:58:01.221Z,2.22
2019-04-30T12:00:33.260Z,2.10
2019-04-30T12:03:03.673Z,2.27
2019-04-30T12:05:34.155Z,2.55
2019-04-30T12:08:07.069Z,2.83
2019-04-30T12:10:48.302Z,2.80
2019-04-30T12:13:26.205Z,2.95
2019-04-30T12:15:58.823Z,2.83
2019-04-30T12:18:30.759Z,2.90
2019-04-30T12:21:01.289Z,2.90
2019-04-30T12:23:31.753Z,3.08
2019-04-30T12:26:02.950Z,2.72
2019-04-30T12:28:33.770Z,3.50
2019-04-30T12:31:05.853Z,3.17
2019-04-30T12:33:36.609Z,3.33
2019-04-30T12:36:09.006Z,3.45
2019-04-30T12:38:39.530Z,3.22
2019-04-30T12:41:09.946Z,3.02
2019-04-30T12:43:41.854Z,4.17
2019-04-30T12:46:12.248Z,3.17
2019-04-30T12:48:50.215Z,3.35
2019-04-30T12:51:28.359Z,3.00
2019-04-30T12:54:09.566Z,3.22
2019-04-30T12:56:45.499Z,3.60
2019-04-30T12:59:16.015Z,2.80
2019-04-30T13:01:49.544Z,3.20
2019-04-30T13:04:20.168Z,2.77
2019-04-30T13:06:51.289Z,2.55
2019-04-30T13:09:24.089Z,3.00
2019-04-30T13:11:55.104Z,3.90
2019-04-30T13:14:26.281Z,4.22
2019-04-30T13:16:58.924Z,2.80
2019-04-30T13:19:29.473Z,3.10
2019-04-30T13:22:00.062Z,3.05
2019-04-30T13:24:31.425Z,3.40
2019-04-30T13:27:02.145Z,4.45
2019-04-30T13:29:35.601Z,3.85
2019-04-30T13:32:05.969Z,3.55
2019-04-30T13:34:50.226Z,4.28
2019-04-30T13:37:20.652Z,4.35
2019-04-30T13:40:10.831Z,5.87
2019-04-30T13:42:42.839Z,6.10
2019-04-30T13:45:13.541Z,6.78
2019-04-30T13:47:43.912Z,6.72
2019-04-30T13:50:14.688Z,8.03
2019-04-30T13:52:48.845Z,7.12
2019-04-30T13:55:19.475Z,8.65
2019-04-30T13:57:49.839Z,9.58
2019-04-30T14:00:22.412Z,11.28
2019-04-30T14:03:00.870Z,11.97
2019-04-30T14:05:31.465Z,14.50
2019-04-30T14:08:05.922Z,14.13
2019-04-30T14:10:39.302Z,14.55
2019-04-30T14:13:11.031Z,14.85
2019-04-30T14:15:42.063Z,15.08
2019-04-30T14:18:14.020Z,14.20
2019-04-30T14:20:44.437Z,14.75
2019-04-30T14:23:14.852Z,16.02
2019-04-30T14:25:55.949Z,15.40
2019-04-30T14:28:19.092Z,15.48
2019-04-30T14:30:49.660Z,18.20
2019-04-30T14:33:26.005Z,17.87
2019-04-30T14:35:52.198Z,17.30
2019-04-30T14:38:24.130Z,17.60
2019-04-30T14:40:55.206Z,18.50
2019-04-30T14:43:42.320Z,17.85
2019-04-30T14:46:16.740Z,18.17
2019-04-30T14:48:55.828Z,17.50
2019-04-30T14:51:26.653Z,18.45
2019-04-30T14:54:13.776Z,19.62
2019-04-30T14:56:45.731Z,18.35
2019-04-30T14:59:18.765Z,19.55
2019-04-30T15:01:51.652Z,19.85
2019-04-30T15:04:22.253Z,20.15
2019-04-30T15:06:52.636Z,20.43
2019-04-30T15:09:23.572Z,20.37
2019-04-30T15:11:53.979Z,21.73
2019-04-30T15:14:24.408Z,21.07
2019-04-30T15:16:54.905Z,23.25
2019-04-30T15:19:26.753Z,21.57
2019-04-30T15:21:59.035Z,24.10
2019-04-30T15:24:30.880Z,23.52
2019-04-30T15:27:01.338Z,23.50
2019-04-30T15:29:31.761Z,22.87
2019-04-30T15:32:02.193Z,22.62
2019-04-30T15:34:32.600Z,20.72
2019-04-30T15:37:03.023Z,21.97
2019-04-30T15:39:34.982Z,21.95
2019-04-30T15:42:05.676Z,20.90
2019-04-30T15:44:45.224Z,22.25
2019-04-30T15:47:10.046Z,22.40
2019-04-30T15:49:40.480Z,25.10
2019-04-30T15:52:11.137Z,24.52
2019-04-30T15:54:41.686Z,22.98
2019-04-30T15:57:12.063Z,25.82
2019-04-30T15:59:42.486Z,25.88
2019-04-30T16:02:14.612Z,28.17
2019-04-30T16:05:05.052Z,25.20
2019-04-30T16:07:40.546Z,26.15
2019-04-30T16:10:12.024Z,26.10
2019-04-30T16:12:45.468Z,26.12
2019-04-30T16:15:18.475Z,27.20
2019-04-30T16:17:53.528Z,27.87
2019-04-30T16:20:24.856Z,27.37
2019-04-30T16:22:55.312Z,28.80
2019-04-30T16:25:25.734Z,27.35
2019-04-30T16:27:56.111Z,25.65
2019-04-30T16:30:28.902Z,27.32
2019-04-30T16:32:59.693Z,31.73
2019-04-30T16:35:30.490Z,31.15
2019-04-30T16:38:02.140Z,32.15
2019-04-30T16:40:32.549Z,31.02
2019-04-30T16:43:02.961Z,29.65
2019-04-30T16:45:34.948Z,31.15
2019-04-30T16:48:05.612Z,31.80
2019-04-30T16:50:36.105Z,34.00
2019-04-30T16:53:06.593Z,34.10
2019-04-30T16:55:37.432Z,34.18
2019-04-30T16:58:08.993Z,34.03
2019-04-30T17:00:41.211Z,31.95
2019-04-30T17:03:16.733Z,34.10
2019-04-30T17:05:49.928Z,36.35
2019-04-30T17:08:29.884Z,37.50
2019-04-30T17:11:04.720Z,36.90
2019-04-30T17:13:42.994Z,38.40
2019-04-30T17:16:20.984Z,37.23
2019-04-30T17:18:51.565Z,40.40
2019-04-30T17:21:22.541Z,39.98
2019-04-30T17:23:52.963Z,40.28
2019-04-30T17:26:23.422Z,39.80
2019-04-30T17:28:56.195Z,39.60
2019-04-30T17:31:26.669Z,39.25
2019-04-30T17:33:58.660Z,26.10
2019-04-30T17:36:30.781Z,29.05
2019-04-30T17:39:03.970Z,21.35
2019-04-30T17:41:36.985Z,17.10
2019-04-30T17:44:08.895Z,16.48
2019-04-30T17:46:39.465Z,14.23
2019-04-30T17:49:10.157Z,16.27
2019-04-30T17:51:40.761Z,16.95
2019-04-30T17:54:12.880Z,16.48
2019-04-30T17:56:44.644Z,15.65
2019-04-30T17:59:15.340Z,15.15
2019-04-30T18:01:49.489Z,14.23
2019-04-30T18:04:22.027Z,13.50
2019-04-30T18:06:51.587Z,14.83
2019-04-30T18:09:22.476Z,14.58
2019-04-30T18:11:53.009Z,14.78
2019-04-30T18:14:25.049Z,16.17
2019-04-30T18:16:55.414Z,13.65
2019-04-30T18:19:28.685Z,13.15
2019-04-30T18:22:15.881Z,10.70
2019-04-30T18:24:53.685Z,10.65
2019-04-30T18:27:25.642Z,9.93
2019-04-30T18:29:56.045Z,11.15
2019-04-30T18:32:29.612Z,12.58
2019-04-30T18:35:00.395Z,13.15
2019-04-30T18:37:31.132Z,13.28
2019-04-30T18:40:01.591Z,13.30
2019-04-30T18:42:32.993Z,14.98
2019-04-30T18:45:03.417Z,11.88
2019-04-30T18:47:33.817Z,11.50
2019-04-30T18:50:06.937Z,12.30
2019-04-30T18:52:37.770Z,10.72
2019-04-30T18:55:09.333Z,10.63
2019-04-30T18:57:41.333Z,11.18
2019-04-30T19:00:13.961Z,11.43
2019-04-30T19:02:44.357Z,11.25
2019-04-30T19:05:19.065Z,11.28
2019-04-30T19:07:51.053Z,11.55
2019-04-30T19:10:39.291Z,11.25
2019-04-30T19:13:11.397Z,11.00
2019-04-30T19:16:17.992Z,12.35
2019-04-30T19:18:31.946Z,11.35
2019-04-30T19:21:03.902Z,14.10
2019-04-30T19:23:34.439Z,12.88
2019-04-30T19:26:06.500Z,11.38
2019-04-30T19:28:38.664Z,11.25
2019-04-30T19:31:11.616Z,12.28
2019-04-30T19:33:41.273Z,13.22
2019-04-30T19:36:11.823Z,15.00
2019-04-30T19:38:42.238Z,13.18
2019-04-30T19:41:13.014Z,14.43
2019-04-30T19:43:43.557Z,14.75
2019-04-30T19:46:13.946Z,13.20
2019-04-30T19:48:45.214Z,12.82
2019-04-30T19:51:15.911Z,11.50
2019-04-30T19:53:48.839Z,12.18
2019-04-30T19:56:20.609Z,12.05
2019-04-30T19:59:01.732Z,12.07
2019-04-30T20:01:23.370Z,11.05
2019-04-30T20:03:54.228Z,11.55
2019-04-30T20:06:24.704Z,10.40
2019-04-30T20:08:55.129Z,10.55
2019-04-30T20:11:25.549Z,10.48
2019-04-30T20:13:56.079Z,10.18
2019-04-30T20:16:26.688Z,9.80
2019-04-30T20:18:59.106Z,10.63
2019-04-30T20:21:45.101Z,9.78
2019-04-30T20:24:02.519Z,11.05
2019-04-30T20:26:33.427Z,9.98
2019-04-30T20:29:05.391Z,10.50
2019-04-30T20:31:35.830Z,11.33
2019-04-30T20:34:09.214Z,11.70
2019-04-30T20:36:39.774Z,11.57
2019-04-30T20:39:17.776Z,11.45
2019-04-30T20:41:49.395Z,11.28
2019-04-30T20:44:19.778Z,11.57
2019-04-30T20:46:50.353Z,11.45
2019-04-30T20:49:20.850Z,11.05
2019-04-30T20:51:55.589Z,10.30
2019-04-30T20:54:23.407Z,10.72
2019-04-30T20:56:53.804Z,11.73
2019-04-30T20:59:24.174Z,11.00
2019-04-30T21:01:56.207Z,10.60
2019-04-30T21:04:26.678Z,11.20
2019-04-30T21:06:59.502Z,11.75
2019-04-30T21:09:30.011Z,10.80
2019-04-30T21:12:00.469Z,11.45
2019-04-30T21:14:30.866Z,11.57
2019-04-30T21:17:01.285Z,12.07
2019-04-30T21:19:31.676Z,12.13
2019-04-30T21:22:02.209Z,11.18
2019-04-30T21:24:32.676Z,12.43
2019-04-30T21:27:03.163Z,12.15
2019-04-30T21:29:33.638Z,11.90
2019-04-30T21:32:09.952Z,12.13
2019-04-30T21:34:47.753Z,12.73
2019-04-30T21:37:18.254Z,14.25
2019-04-30T21:39:50.169Z,12.53
2019-04-30T21:42:20.766Z,13.10
2019-04-30T21:44:51.165Z,13.43
2019-04-30T21:47:21.571Z,13.20
2019-04-30T21:49:52.199Z,14.55
2019-04-30T21:52:22.587Z,13.15
2019-04-30T21:54:53.070Z,13.62
2019-04-30T21:57:23.444Z,12.95
2019-04-30T21:59:53.866Z,13.03
2019-04-30T22:02:24.253Z,13.13
2019-04-30T22:04:54.846Z,13.25
2019-04-30T22:07:26.892Z,13.45
2019-04-30T22:09:57.309Z,13.45
2019-04-30T22:12:31.192Z,14.18
2019-04-30T22:15:01.365Z,13.28
2019-04-30T22:17:31.743Z,14.53
2019-04-30T22:20:03.588Z,13.98
2019-04-30T22:22:34.230Z,13.50
2019-04-30T22:25:06.912Z,13.85
2019-04-30T22:27:37.301Z,15.08
2019-04-30T22:30:08.203Z,14.38
2019-04-30T22:32:38.610Z,14.55
2019-04-30T22:35:28.829Z,14.47
2019-04-30T22:38:00.874Z,14.68
2019-04-30T22:40:31.664Z,14.85
2019-04-30T22:43:05.058Z,15.53
2019-04-30T22:45:40.491Z,14.75
2019-04-30T22:48:11.026Z,13.75
2019-04-30T22:50:44.231Z,14.45
2019-04-30T22:53:16.161Z,14.07
2019-04-30T22:55:46.634Z,14.58
2019-04-30T22:58:18.600Z,14.23
2019-04-30T23:00:49.417Z,13.10
2019-04-30T23:03:27.483Z,14.78
2019-04-30T23:05:58.006Z,14.68
2019-04-30T23:08:28.576Z,14.53
2019-04-30T23:10:59.052Z,14.55
2019-04-30T23:13:29.458Z,14.43
2019-04-30T23:15:59.885Z,14.10
2019-04-30T23:18:32.236Z,14.07
2019-04-30T23:21:02.815Z,13.53
2019-04-30T23:23:33.303Z,14.30
2019-04-30T23:26:03.697Z,13.85
2019-04-30T23:28:35.589Z,13.98
2019-04-30T23:31:05.971Z,14.28
2019-04-30T23:33:36.434Z,14.23
2019-04-30T23:36:06.886Z,14.35
2019-04-30T23:38:37.384Z,15.18
2019-04-30T23:41:07.766Z,15.48
2019-04-30T23:43:38.201Z,15.58
2019-04-30T23:46:08.602Z,15.75
2019-04-30T23:48:39.188Z,16.23
2019-04-30T23:51:11.192Z,16.75
2019-04-30T23:53:41.619Z,17.23
2019-04-30T23:56:11.565Z,17.55
2019-04-30T23:58:42.026Z,18.37
